CheckWX is a tool to help pilots better visualize weather data.  It is not intended as a substitute for an official pre-flight weather briefing.

00:00:21 UTC

LLHA METAR
Haifa International Airport
Haifa, Israel
Current

4 hours ago

LLHA 191950Z 23005KT 190V260 5000 RA BKN035 13/11 Q1020
Observed
Jan-19 @ 19:50 UTC
Wind
  • 230° at 5 KTS
Visibility
5,000 meters
Flight Rules
MVFR
Conditions
Rain
Cloud Levels
  • Broken at 3,500' AGL
Temperature
13°C / 55°F
Dewpoint
11°C / 52°F
Humidity
88%
Altimeter
30.12" Hg
Pressure
1019.92 hPa
Previous

5 hours ago

LLHA 191850Z VRB03KT 9999 RA FEW033 14/11 Q1020 RMK BKN060
Observed
Jan-19 @ 18:50 UTC
Wind
  • Variable at 3 KTS
Visibility
10,000+ meters
Flight Rules
VFR
Conditions
Rain
Cloud Levels
  • Few at 3,300' AGL
Temperature
14°C / 57°F
Dewpoint
11°C / 52°F
Humidity
82%
Altimeter
30.12" Hg
Pressure
1019.92 hPa
Previous

6 hours ago

LLHA 191750Z 27007KT 9999 -RA FEW035 BKN050 16/08 Q1019
Observed
Jan-19 @ 17:50 UTC
Wind
  • 270° at 7 KTS
Visibility
10,000+ meters
Flight Rules
VFR
Conditions
Light Rain
Cloud Levels
  • Few at 3,500' AGL
  • Broken at 5,000' AGL
Temperature
16°C / 61°F
Dewpoint
C / 46°F
Humidity
59%
Altimeter
30.09" Hg
Pressure
1018.92 hPa